sensor_id;sensor_type;location;lat;lon;timestamp;pressure;altitude;pressure_sealevel;temperature;humidity
67373;BME280;54257;54.496;18.412;2023-03-11T00:00:48;97164.14;;;-0.44;97.95
67373;BME280;54257;54.496;18.412;2023-03-11T00:03:25;97159.66;;;-0.41;98.00
67373;BME280;54257;54.496;18.412;2023-03-11T00:05:53;97158.55;;;-0.36;98.18
67373;BME280;54257;54.496;18.412;2023-03-11T00:08:23;97159.77;;;-0.33;98.17
67373;BME280;54257;54.496;18.412;2023-03-11T00:10:56;97155.96;;;-0.30;98.11
67373;BME280;54257;54.496;18.412;2023-03-11T00:13:26;97148.49;;;-0.24;98.16
67373;BME280;54257;54.496;18.412;2023-03-11T00:15:54;97150.53;;;-0.22;97.97
67373;BME280;54257;54.496;18.412;2023-03-11T00:18:26;97150.38;;;-0.19;98.02
67373;BME280;54257;54.496;18.412;2023-03-11T00:20:55;97153.08;;;-0.18;97.98
67373;BME280;54257;54.496;18.412;2023-03-11T00:23:23;97152.55;;;-0.20;97.58
67373;BME280;54257;54.496;18.412;2023-03-11T00:25:51;97152.88;;;-0.22;97.57
67373;BME280;54257;54.496;18.412;2023-03-11T00:28:21;97150.31;;;-0.25;97.46
67373;BME280;54257;54.496;18.412;2023-03-11T00:30:51;97153.29;;;-0.28;97.47
67373;BME280;54257;54.496;18.412;2023-03-11T00:33:18;97144.86;;;-0.31;97.44
67373;BME280;54257;54.496;18.412;2023-03-11T00:35:45;97145.82;;;-0.35;97.68
67373;BME280;54257;54.496;18.412;2023-03-11T00:38:14;97144.44;;;-0.39;97.51
67373;BME280;54257;54.496;18.412;2023-03-11T00:40:43;97138.05;;;-0.40;97.60
67373;BME280;54257;54.496;18.412;2023-03-11T00:43:11;97132.98;;;-0.42;98.10
67373;BME280;54257;54.496;18.412;2023-03-11T00:45:38;97132.85;;;-0.41;97.92
67373;BME280;54257;54.496;18.412;2023-03-11T00:48:06;97131.71;;;-0.38;98.12
67373;BME280;54257;54.496;18.412;2023-03-11T00:50:37;97133.91;;;-0.36;98.34
67373;BME280;54257;54.496;18.412;2023-03-11T00:53:05;97135.09;;;-0.34;98.13
67373;BME280;54257;54.496;18.412;2023-03-11T00:55:34;97132.45;;;-0.32;98.33
67373;BME280;54257;54.496;18.412;2023-03-11T00:58:05;97130.81;;;-0.28;98.31
67373;BME280;54257;54.496;18.412;2023-03-11T01:00:35;97132.05;;;-0.25;98.23
67373;BME280;54257;54.496;18.412;2023-03-11T01:03:02;97133.25;;;-0.22;98.10
67373;BME280;54257;54.496;18.412;2023-03-11T01:05:33;97139.98;;;-0.19;98.17
67373;BME280;54257;54.496;18.412;2023-03-11T01:08:01;97144.39;;;-0.16;98.09
67373;BME280;54257;54.496;18.412;2023-03-11T01:10:30;97143.59;;;-0.14;97.92
67373;BME280;54257;54.496;18.412;2023-03-11T01:12:57;97141.19;;;-0.18;97.87
67373;BME280;54257;54.496;18.412;2023-03-11T01:15:31;97143.98;;;-0.22;97.43
67373;BME280;54257;54.496;18.412;2023-03-11T01:17:59;97144.46;;;-0.24;97.52
67373;BME280;54257;54.496;18.412;2023-03-11T01:20:26;97139.70;;;-0.29;97.39
67373;BME280;54257;54.496;18.412;2023-03-11T01:22:53;97139.61;;;-0.35;97.34
67373;BME280;54257;54.496;18.412;2023-03-11T01:25:22;97141.09;;;-0.38;97.49
67373;BME280;54257;54.496;18.412;2023-03-11T01:27:50;97145.05;;;-0.42;97.51
67373;BME280;54257;54.496;18.412;2023-03-11T01:30:21;97141.85;;;-0.43;97.49
67373;BME280;54257;54.496;18.412;2023-03-11T01:32:50;97143.20;;;-0.42;97.69
67373;BME280;54257;54.496;18.412;2023-03-11T01:35:20;97141.38;;;-0.42;97.85
67373;BME280;54257;54.496;18.412;2023-03-11T01:37:48;97141.73;;;-0.40;98.16
67373;BME280;54257;54.496;18.412;2023-03-11T01:42:57;97138.60;;;-0.35;98.43
67373;BME280;54257;54.496;18.412;2023-03-11T01:45:30;97138.28;;;-0.34;98.84
67373;BME280;54257;54.496;18.412;2023-03-11T01:47:59;97138.34;;;-0.31;98.79
67373;BME280;54257;54.496;18.412;2023-03-11T01:50:39;97139.23;;;-0.26;98.74
67373;BME280;54257;54.496;18.412;2023-03-11T01:53:07;97128.36;;;-0.25;99.01
67373;BME280;54257;54.496;18.412;2023-03-11T01:55:37;97127.68;;;-0.25;98.82
67373;BME280;54257;54.496;18.412;2023-03-11T01:58:07;97127.98;;;-0.28;98.79
67373;BME280;54257;54.496;18.412;2023-03-11T02:00:37;97127.77;;;-0.32;98.62
67373;BME280;54257;54.496;18.412;2023-03-11T02:03:26;97126.36;;;-0.36;98.89
67373;BME280;54257;54.496;18.412;2023-03-11T02:05:55;97127.13;;;-0.41;98.81
67373;BME280;54257;54.496;18.412;2023-03-11T02:08:25;97125.91;;;-0.45;99.05
67373;BME280;54257;54.496;18.412;2023-03-11T02:10:53;97128.38;;;-0.49;98.94
67373;BME280;54257;54.496;18.412;2023-03-11T02:13:20;97129.67;;;-0.50;99.07
67373;BME280;54257;54.496;18.412;2023-03-11T02:15:48;97129.36;;;-0.49;99.22
67373;BME280;54257;54.496;18.412;2023-03-11T02:18:21;97131.39;;;-0.49;99.39
67373;BME280;54257;54.496;18.412;2023-03-11T02:20:58;97128.21;;;-0.48;99.72
67373;BME280;54257;54.496;18.412;2023-03-11T02:23:43;97128.53;;;-0.49;99.85
67373;BME280;54257;54.496;18.412;2023-03-11T02:28:57;97127.04;;;-0.48;100.00
67373;BME280;54257;54.496;18.412;2023-03-11T02:31:31;97132.92;;;-0.47;99.85
67373;BME280;54257;54.496;18.412;2023-03-11T02:34:05;97129.09;;;-0.45;99.84
67373;BME280;54257;54.496;18.412;2023-03-11T02:36:40;97128.78;;;-0.42;99.80
67373;BME280;54257;54.496;18.412;2023-03-11T02:39:08;97138.84;;;-0.43;99.75
67373;BME280;54257;54.496;18.412;2023-03-11T02:41:42;97137.69;;;-0.41;99.56
67373;BME280;54257;54.496;18.412;2023-03-11T02:44:13;97138.05;;;-0.40;99.59
67373;BME280;54257;54.496;18.412;2023-03-11T02:46:41;97140.53;;;-0.42;99.60
67373;BME280;54257;54.496;18.412;2023-03-11T02:49:09;97136.13;;;-0.45;99.80
67373;BME280;54257;54.496;18.412;2023-03-11T02:51:35;97139.55;;;-0.51;99.85
67373;BME280;54257;54.496;18.412;2023-03-11T02:54:04;97144.23;;;-0.55;99.76
67373;BME280;54257;54.496;18.412;2023-03-11T02:56:32;97146.99;;;-0.59;99.88
67373;BME280;54257;54.496;18.412;2023-03-11T02:58:58;97150.30;;;-0.62;99.79
67373;BME280;54257;54.496;18.412;2023-03-11T03:01:25;97153.11;;;-0.65;99.96
67373;BME280;54257;54.496;18.412;2023-03-11T03:03:52;97152.40;;;-0.67;100.00
67373;BME280;54257;54.496;18.412;2023-03-11T03:06:20;97157.26;;;-0.68;100.00
67373;BME280;54257;54.496;18.412;2023-03-11T03:08:47;97153.71;;;-0.70;100.00
67373;BME280;54257;54.496;18.412;2023-03-11T03:11:13;97151.19;;;-0.71;100.00
67373;BME280;54257;54.496;18.412;2023-03-11T03:13:40;97152.85;;;-0.72;100.00
67373;BME280;54257;54.496;18.412;2023-03-11T03:16:07;97159.05;;;-0.72;100.00
67373;BME280;54257;54.496;18.412;2023-03-11T03:18:34;97166.77;;;-0.71;100.00
67373;BME280;54257;54.496;18.412;2023-03-11T03:21:01;97169.62;;;-0.71;100.00
67373;BME280;54257;54.496;18.412;2023-03-11T03:23:28;97172.48;;;-0.71;100.00
67373;BME280;54257;54.496;18.412;2023-03-11T03:25:55;97177.52;;;-0.68;100.00
67373;BME280;54257;54.496;18.412;2023-03-11T03:28:22;97180.92;;;-0.66;100.00
67373;BME280;54257;54.496;18.412;2023-03-11T03:30:49;97177.27;;;-0.65;100.00
67373;BME280;54257;54.496;18.412;2023-03-11T03:33:16;97175.43;;;-0.63;100.00
67373;BME280;54257;54.496;18.412;2023-03-11T03:35:44;97174.92;;;-0.64;100.00
67373;BME280;54257;54.496;18.412;2023-03-11T03:38:12;97180.09;;;-0.66;100.00
67373;BME280;54257;54.496;18.412;2023-03-11T03:40:45;97180.57;;;-0.66;100.00
67373;BME280;54257;54.496;18.412;2023-03-11T03:43:13;97181.75;;;-0.66;100.00
67373;BME280;54257;54.496;18.412;2023-03-11T03:45:40;97184.10;;;-0.66;100.00
67373;BME280;54257;54.496;18.412;2023-03-11T03:48:08;97185.59;;;-0.66;100.00
67373;BME280;54257;54.496;18.412;2023-03-11T03:50:35;97187.92;;;-0.68;100.00
67373;BME280;54257;54.496;18.412;2023-03-11T03:53:02;97190.27;;;-0.68;100.00
67373;BME280;54257;54.496;18.412;2023-03-11T03:55:28;97194.11;;;-0.69;100.00
67373;BME280;54257;54.496;18.412;2023-03-11T03:57:56;97200.98;;;-0.68;100.00
67373;BME280;54257;54.496;18.412;2023-03-11T04:00:23;97202.48;;;-0.70;99.97
67373;BME280;54257;54.496;18.412;2023-03-11T04:02:50;97203.08;;;-0.74;99.91
67373;BME280;54257;54.496;18.412;2023-03-11T04:05:17;97209.39;;;-0.76;99.71
67373;BME280;54257;54.496;18.412;2023-03-11T04:07:44;97214.08;;;-0.78;99.81
67373;BME280;54257;54.496;18.412;2023-03-11T04:10:13;97209.54;;;-0.79;99.90
67373;BME280;54257;54.496;18.412;2023-03-11T04:12:40;97211.86;;;-0.80;99.91
67373;BME280;54257;54.496;18.412;2023-03-11T04:15:07;97214.50;;;-0.82;99.99
67373;BME280;54257;54.496;18.412;2023-03-11T04:17:35;97219.40;;;-0.81;99.94
67373;BME280;54257;54.496;18.412;2023-03-11T04:20:04;97213.91;;;-0.77;100.00
67373;BME280;54257;54.496;18.412;2023-03-11T04:22:33;97212.77;;;-0.75;100.00
67373;BME280;54257;54.496;18.412;2023-03-11T04:25:01;97208.27;;;-0.74;99.95
67373;BME280;54257;54.496;18.412;2023-03-11T04:27:28;97215.02;;;-0.72;99.86
67373;BME280;54257;54.496;18.412;2023-03-11T04:29:55;97217.36;;;-0.72;99.69
67373;BME280;54257;54.496;18.412;2023-03-11T04:32:22;97220.40;;;-0.70;99.54
67373;BME280;54257;54.496;18.412;2023-03-11T04:34:51;97216.39;;;-0.69;99.28
67373;BME280;54257;54.496;18.412;2023-03-11T04:37:19;97220.15;;;-0.66;99.12
67373;BME280;54257;54.496;18.412;2023-03-11T04:39:49;97226.39;;;-0.63;98.93
67373;BME280;54257;54.496;18.412;2023-03-11T04:42:16;97225.23;;;-0.61;98.82
67373;BME280;54257;54.496;18.412;2023-03-11T04:44:44;97229.25;;;-0.61;98.46
67373;BME280;54257;54.496;18.412;2023-03-11T04:47:11;97228.04;;;-0.64;98.18
67373;BME280;54257;54.496;18.412;2023-03-11T04:49:41;97228.46;;;-0.68;98.03
67373;BME280;54257;54.496;18.412;2023-03-11T04:52:07;97232.44;;;-0.72;98.00
67373;BME280;54257;54.496;18.412;2023-03-11T04:54:34;97230.86;;;-0.75;97.98
67373;BME280;54257;54.496;18.412;2023-03-11T04:57:01;97233.17;;;-0.77;97.93
67373;BME280;54257;54.496;18.412;2023-03-11T04:59:28;97233.33;;;-0.79;97.90
67373;BME280;54257;54.496;18.412;2023-03-11T05:01:55;97235.81;;;-0.80;97.86
67373;BME280;54257;54.496;18.412;2023-03-11T05:04:22;97239.66;;;-0.81;97.89
67373;BME280;54257;54.496;18.412;2023-03-11T05:06:49;97249.58;;;-0.80;97.80
67373;BME280;54257;54.496;18.412;2023-03-11T05:09:16;97252.27;;;-0.78;97.88
67373;BME280;54257;54.496;18.412;2023-03-11T05:11:43;97249.63;;;-0.76;97.83
67373;BME280;54257;54.496;18.412;2023-03-11T05:14:10;97259.58;;;-0.73;97.73
67373;BME280;54257;54.496;18.412;2023-03-11T05:16:39;97261.12;;;-0.70;97.74
67373;BME280;54257;54.496;18.412;2023-03-11T05:19:06;97257.81;;;-0.67;97.76
67373;BME280;54257;54.496;18.412;2023-03-11T05:21:55;97261.59;;;-0.62;97.55
67373;BME280;54257;54.496;18.412;2023-03-11T05:24:24;97261.77;;;-0.61;97.49
67373;BME280;54257;54.496;18.412;2023-03-11T05:26:52;97264.12;;;-0.61;97.18
67373;BME280;54257;54.496;18.412;2023-03-11T05:29:20;97265.11;;;-0.62;97.03
67373;BME280;54257;54.496;18.412;2023-03-11T05:31:47;97267.02;;;-0.67;96.74
67373;BME280;54257;54.496;18.412;2023-03-11T05:34:15;97273.32;;;-0.72;96.73
67373;BME280;54257;54.496;18.412;2023-03-11T05:36:43;97272.09;;;-0.75;96.68
67373;BME280;54257;54.496;18.412;2023-03-11T05:39:11;97274.57;;;-0.77;96.75
67373;BME280;54257;54.496;18.412;2023-03-11T05:41:38;97276.39;;;-0.79;96.76
67373;BME280;54257;54.496;18.412;2023-03-11T05:44:05;97282.58;;;-0.80;96.74
67373;BME280;54257;54.496;18.412;2023-03-11T05:46:32;97288.95;;;-0.79;96.93
67373;BME280;54257;54.496;18.412;2023-03-11T05:48:59;97291.83;;;-0.77;96.98
67373;BME280;54257;54.496;18.412;2023-03-11T05:51:26;97301.23;;;-0.75;96.94
67373;BME280;54257;54.496;18.412;2023-03-11T05:53:53;97305.62;;;-0.74;96.88
67373;BME280;54257;54.496;18.412;2023-03-11T05:56:21;97307.31;;;-0.73;96.73
67373;BME280;54257;54.496;18.412;2023-03-11T05:58:49;97311.87;;;-0.72;96.73
67373;BME280;54257;54.496;18.412;2023-03-11T06:01:18;97314.94;;;-0.68;96.81
67373;BME280;54257;54.496;18.412;2023-03-11T06:03:46;97318.41;;;-0.62;96.95
67373;BME280;54257;54.496;18.412;2023-03-11T06:06:13;97320.02;;;-0.56;96.96
67373;BME280;54257;54.496;18.412;2023-03-11T06:08:40;97327.30;;;-0.51;96.74
67373;BME280;54257;54.496;18.412;2023-03-11T06:11:11;97331.48;;;-0.52;96.38
67373;BME280;54257;54.496;18.412;2023-03-11T06:13:38;97330.59;;;-0.55;95.96
67373;BME280;54257;54.496;18.412;2023-03-11T06:16:06;97338.11;;;-0.57;95.92
67373;BME280;54257;54.496;18.412;2023-03-11T06:18:34;97344.11;;;-0.58;95.79
67373;BME280;54257;54.496;18.412;2023-03-11T06:21:02;97350.63;;;-0.59;95.71
67373;BME280;54257;54.496;18.412;2023-03-11T06:23:30;97349.29;;;-0.59;95.74
67373;BME280;54257;54.496;18.412;2023-03-11T06:25:59;97350.26;;;-0.61;95.70
67373;BME280;54257;54.496;18.412;2023-03-11T06:28:28;97352.39;;;-0.64;95.59
67373;BME280;54257;54.496;18.412;2023-03-11T06:30:55;97358.09;;;-0.64;95.54
67373;BME280;54257;54.496;18.412;2023-03-11T06:33:23;97366.81;;;-0.64;95.50
67373;BME280;54257;54.496;18.412;2023-03-11T06:35:56;97373.68;;;-0.64;95.43
67373;BME280;54257;54.496;18.412;2023-03-11T06:38:23;97379.58;;;-0.61;95.39
67373;BME280;54257;54.496;18.412;2023-03-11T06:40:57;97378.09;;;-0.61;95.31
67373;BME280;54257;54.496;18.412;2023-03-11T06:43:24;97382.88;;;-0.56;95.36
67373;BME280;54257;54.496;18.412;2023-03-11T06:45:51;97387.15;;;-0.50;95.56
67373;BME280;54257;54.496;18.412;2023-03-11T06:48:18;97391.63;;;-0.44;95.70
67373;BME280;54257;54.496;18.412;2023-03-11T06:50:55;97394.61;;;-0.37;95.45
67373;BME280;54257;54.496;18.412;2023-03-11T06:53:23;97395.86;;;-0.33;95.24
67373;BME280;54257;54.496;18.412;2023-03-11T06:56:07;97400.09;;;-0.30;94.80
67373;BME280;54257;54.496;18.412;2023-03-11T06:58:35;97412.33;;;-0.30;94.03
67373;BME280;54257;54.496;18.412;2023-03-11T07:01:13;97416.35;;;-0.31;93.98
67373;BME280;54257;54.496;18.412;2023-03-11T07:03:41;97427.25;;;-0.31;93.84
67373;BME280;54257;54.496;18.412;2023-03-11T07:06:13;97429.09;;;-0.31;93.46
67373;BME280;54257;54.496;18.412;2023-03-11T07:08:40;97434.29;;;-0.32;93.29
67373;BME280;54257;54.496;18.412;2023-03-11T07:11:24;97435.80;;;-0.31;93.09
67373;BME280;54257;54.496;18.412;2023-03-11T07:13:52;97439.67;;;-0.31;93.15
67373;BME280;54257;54.496;18.412;2023-03-11T07:16:29;97447.86;;;-0.33;92.61
67373;BME280;54257;54.496;18.412;2023-03-11T07:18:59;97453.86;;;-0.33;92.60
67373;BME280;54257;54.496;18.412;2023-03-11T07:21:30;97458.20;;;-0.34;92.65
67373;BME280;54257;54.496;18.412;2023-03-11T07:23:59;97462.86;;;-0.35;92.45
67373;BME280;54257;54.496;18.412;2023-03-11T07:26:28;97466.06;;;-0.34;92.55
67373;BME280;54257;54.496;18.412;2023-03-11T07:28:57;97471.10;;;-0.34;92.31
67373;BME280;54257;54.496;18.412;2023-03-11T07:31:28;97476.70;;;-0.32;92.37
67373;BME280;54257;54.496;18.412;2023-03-11T07:33:57;97484.81;;;-0.28;92.54
67373;BME280;54257;54.496;18.412;2023-03-11T07:36:25;97492.93;;;-0.24;92.39
67373;BME280;54257;54.496;18.412;2023-03-11T07:38:56;97497.88;;;-0.19;92.26
67373;BME280;54257;54.496;18.412;2023-03-11T07:41:26;97500.30;;;-0.15;92.16
67373;BME280;54257;54.496;18.412;2023-03-11T07:43:54;97506.09;;;-0.11;92.24
67373;BME280;54257;54.496;18.412;2023-03-11T07:46:23;97508.38;;;-0.05;92.30
67373;BME280;54257;54.496;18.412;2023-03-11T07:48:50;97512.12;;;-0.02;91.64
67373;BME280;54257;54.496;18.412;2023-03-11T07:51:23;97518.34;;;-0.02;91.40
67373;BME280;54257;54.496;18.412;2023-03-11T07:53:51;97518.84;;;-0.01;91.10
67373;BME280;54257;54.496;18.412;2023-03-11T07:56:20;97519.11;;;-0.06;90.82
67373;BME280;54257;54.496;18.412;2023-03-11T07:58:49;97522.22;;;-0.10;90.54
67373;BME280;54257;54.496;18.412;2023-03-11T08:01:19;97522.17;;;-0.12;90.60
67373;BME280;54257;54.496;18.412;2023-03-11T08:03:48;97522.14;;;-0.14;90.45
67373;BME280;54257;54.496;18.412;2023-03-11T08:08:44;97523.02;;;-0.21;90.08
67373;BME280;54257;54.496;18.412;2023-03-11T08:11:11;97532.02;;;-0.24;90.09
67373;BME280;54257;54.496;18.412;2023-03-11T08:13:40;97537.15;;;-0.26;89.95
67373;BME280;54257;54.496;18.412;2023-03-11T08:16:09;97548.77;;;-0.24;90.03
67373;BME280;54257;54.496;18.412;2023-03-11T08:18:37;97551.91;;;-0.18;90.33
67373;BME280;54257;54.496;18.412;2023-03-11T08:21:06;97555.91;;;-0.11;90.10
67373;BME280;54257;54.496;18.412;2023-03-11T08:23:33;97559.55;;;-0.05;90.06
67373;BME280;54257;54.496;18.412;2023-03-11T08:26:05;97559.17;;;0.01;89.96
67373;BME280;54257;54.496;18.412;2023-03-11T08:28:33;97563.18;;;0.10;90.14
67373;BME280;54257;54.496;18.412;2023-03-11T08:31:12;97573.20;;;0.17;89.93
67373;BME280;54257;54.496;18.412;2023-03-11T08:33:40;97579.42;;;0.26;90.16
67373;BME280;54257;54.496;18.412;2023-03-11T08:36:07;97580.88;;;0.33;89.57
67373;BME280;54257;54.496;18.412;2023-03-11T08:38:34;97587.02;;;0.38;89.08
67373;BME280;54257;54.496;18.412;2023-03-11T08:41:02;97587.27;;;0.42;88.67
67373;BME280;54257;54.496;18.412;2023-03-11T08:43:29;97588.50;;;0.46;88.05
67373;BME280;54257;54.496;18.412;2023-03-11T08:45:59;97588.21;;;0.48;87.79
67373;BME280;54257;54.496;18.412;2023-03-11T08:48:26;97594.19;;;0.54;88.16
67373;BME280;54257;54.496;18.412;2023-03-11T08:50:54;97598.66;;;0.60;87.34
67373;BME280;54257;54.496;18.412;2023-03-11T08:53:22;97610.58;;;0.60;87.12
67373;BME280;54257;54.496;18.412;2023-03-11T08:55:50;97619.48;;;0.59;86.68
67373;BME280;54257;54.496;18.412;2023-03-11T08:58:18;97624.02;;;0.60;86.90
67373;BME280;54257;54.496;18.412;2023-03-11T09:00:46;97630.27;;;0.62;86.82
67373;BME280;54257;54.496;18.412;2023-03-11T09:03:13;97626.56;;;0.62;86.17
67373;BME280;54257;54.496;18.412;2023-03-11T09:05:40;97626.89;;;0.61;85.62
67373;BME280;54257;54.496;18.412;2023-03-11T09:08:07;97627.21;;;0.60;84.93
67373;BME280;54257;54.496;18.412;2023-03-11T09:10:34;97627.42;;;0.62;85.88
67373;BME280;54257;54.496;18.412;2023-03-11T09:13:01;97635.60;;;0.69;85.61
67373;BME280;54257;54.496;18.412;2023-03-11T09:15:28;97639.92;;;0.67;84.89
67373;BME280;54257;54.496;18.412;2023-03-11T09:17:55;97644.72;;;0.63;85.14
67373;BME280;54257;54.496;18.412;2023-03-11T09:20:22;97651.59;;;0.62;85.51
67373;BME280;54257;54.496;18.412;2023-03-11T09:22:49;97659.94;;;0.59;84.71
67373;BME280;54257;54.496;18.412;2023-03-11T09:25:16;97666.66;;;0.59;85.08
67373;BME280;54257;54.496;18.412;2023-03-11T09:27:43;97671.38;;;0.60;84.85
67373;BME280;54257;54.496;18.412;2023-03-11T09:30:11;97678.77;;;0.60;84.81
67373;BME280;54257;54.496;18.412;2023-03-11T09:32:38;97682.50;;;0.62;85.04
67373;BME280;54257;54.496;18.412;2023-03-11T09:35:06;97685.30;;;0.68;85.07
67373;BME280;54257;54.496;18.412;2023-03-11T09:37:33;97689.70;;;0.70;84.63
67373;BME280;54257;54.496;18.412;2023-03-11T09:40:02;97696.91;;;0.69;84.11
67373;BME280;54257;54.496;18.412;2023-03-11T09:42:42;97697.91;;;0.69;84.47
67373;BME280;54257;54.496;18.412;2023-03-11T09:45:18;97708.10;;;0.74;83.76
67373;BME280;54257;54.496;18.412;2023-03-11T09:51:02;97718.20;;;0.75;83.19
67373;BME280;54257;54.496;18.412;2023-03-11T09:53:37;97727.48;;;0.69;82.58
67373;BME280;54257;54.496;18.412;2023-03-11T09:56:09;97736.73;;;0.61;82.43
67373;BME280;54257;54.496;18.412;2023-03-11T09:58:40;97736.16;;;0.58;83.18
67373;BME280;54257;54.496;18.412;2023-03-11T10:01:29;97741.88;;;0.58;83.17
67373;BME280;54257;54.496;18.412;2023-03-11T10:04:22;97740.55;;;0.59;82.58
67373;BME280;54257;54.496;18.412;2023-03-11T10:06:53;97745.56;;;0.66;82.66
67373;BME280;54257;54.496;18.412;2023-03-11T10:09:40;97751.52;;;0.71;81.99
67373;BME280;54257;54.496;18.412;2023-03-11T10:15:16;97761.05;;;0.94;80.70
67373;BME280;54257;54.496;18.412;2023-03-11T10:23:21;97773.33;;;1.13;79.79
67373;BME280;54257;54.496;18.412;2023-03-11T10:25:55;97776.59;;;1.17;78.69
67373;BME280;54257;54.496;18.412;2023-03-11T10:28:45;97782.27;;;1.24;78.93
67373;BME280;54257;54.496;18.412;2023-03-11T10:31:31;97783.08;;;1.33;78.32
67373;BME280;54257;54.496;18.412;2023-03-11T10:37:10;97790.80;;;1.40;78.01
67373;BME280;54257;54.496;18.412;2023-03-11T10:39:39;97794.09;;;1.36;77.41
67373;BME280;54257;54.496;18.412;2023-03-11T10:42:17;97800.44;;;1.26;76.66
67373;BME280;54257;54.496;18.412;2023-03-11T10:44:47;97803.29;;;1.16;77.12
67373;BME280;54257;54.496;18.412;2023-03-11T10:47:23;97807.66;;;1.07;77.04
67373;BME280;54257;54.496;18.412;2023-03-11T10:49:51;97815.23;;;0.98;77.07
67373;BME280;54257;54.496;18.412;2023-03-11T10:52:19;97816.27;;;0.91;77.39
67373;BME280;54257;54.496;18.412;2023-03-11T10:54:48;97820.46;;;0.90;78.02
67373;BME280;54257;54.496;18.412;2023-03-11T10:57:32;97819.57;;;0.88;77.50
67373;BME280;54257;54.496;18.412;2023-03-11T11:00:03;97821.95;;;0.90;78.25
67373;BME280;54257;54.496;18.412;2023-03-11T11:02:53;97827.15;;;0.98;78.63
67373;BME280;54257;54.496;18.412;2023-03-11T11:05:34;97824.02;;;1.01;77.39
67373;BME280;54257;54.496;18.412;2023-03-11T11:08:06;97830.90;;;1.00;76.68
67373;BME280;54257;54.496;18.412;2023-03-11T11:10:35;97831.90;;;0.99;76.60
67373;BME280;54257;54.496;18.412;2023-03-11T11:23:45;97870.45;;;1.03;76.80
67373;BME280;54257;54.496;18.412;2023-03-11T11:26:24;97871.11;;;1.02;76.67
67373;BME280;54257;54.496;18.412;2023-03-11T11:29:05;97872.52;;;1.05;76.77
67373;BME280;54257;54.496;18.412;2023-03-11T11:31:33;97872.32;;;1.05;75.56
67373;BME280;54257;54.496;18.412;2023-03-11T11:34:00;97879.48;;;1.09;75.98
67373;BME280;54257;54.496;18.412;2023-03-11T11:36:30;97884.15;;;1.15;75.32
67373;BME280;54257;54.496;18.412;2023-03-11T11:38:59;97882.23;;;1.21;74.61
67373;BME280;54257;54.496;18.412;2023-03-11T11:41:37;97885.52;;;1.25;74.36
67373;BME280;54257;54.496;18.412;2023-03-11T11:44:05;97878.29;;;1.25;74.14
67373;BME280;54257;54.496;18.412;2023-03-11T11:46:36;97880.17;;;1.28;74.18
67373;BME280;54257;54.496;18.412;2023-03-11T11:52:08;97889.48;;;1.39;73.36
67373;BME280;54257;54.496;18.412;2023-03-11T11:54:43;97897.65;;;1.45;72.58
67373;BME280;54257;54.496;18.412;2023-03-11T11:57:16;97900.34;;;1.45;72.42
67373;BME280;54257;54.496;18.412;2023-03-11T11:59:44;97910.73;;;1.43;72.32
67373;BME280;54257;54.496;18.412;2023-03-11T12:08:17;97913.51;;;1.21;73.02
67373;BME280;54257;54.496;18.412;2023-03-11T12:11:04;97917.02;;;1.11;73.22
67373;BME280;54257;54.496;18.412;2023-03-11T12:24:53;97929.77;;;1.27;73.98
67373;BME280;54257;54.496;18.412;2023-03-11T12:27:35;97934.91;;;1.41;74.28
67373;BME280;54257;54.496;18.412;2023-03-11T12:30:15;97936.29;;;1.51;74.28
67373;BME280;54257;54.496;18.412;2023-03-11T12:32:48;97940.17;;;1.61;74.17
67373;BME280;54257;54.496;18.412;2023-03-11T12:35:26;97940.17;;;1.60;73.51
67373;BME280;54257;54.496;18.412;2023-03-11T12:46:02;97949.32;;;1.46;73.71
67373;BME280;54257;54.496;18.412;2023-03-11T12:48:47;97950.00;;;1.38;73.48
67373;BME280;54257;54.496;18.412;2023-03-11T12:53:53;97962.56;;;1.35;73.68
67373;BME280;54257;54.496;18.412;2023-03-11T12:56:45;97965.14;;;1.47;74.18
67373;BME280;54257;54.496;18.412;2023-03-11T13:08:36;97993.59;;;1.32;73.77
67373;BME280;54257;54.496;18.412;2023-03-11T13:11:55;97996.14;;;1.66;74.12
67373;BME280;54257;54.496;18.412;2023-03-11T13:14:34;97997.14;;;1.74;72.16
67373;BME280;54257;54.496;18.412;2023-03-11T13:19:53;98005.71;;;1.56;72.05
67373;BME280;54257;54.496;18.412;2023-03-11T13:34:13;98032.36;;;1.53;71.44
67373;BME280;54257;54.496;18.412;2023-03-11T13:36:52;98035.30;;;1.48;70.92
67373;BME280;54257;54.496;18.412;2023-03-11T13:39:43;98039.75;;;1.44;71.01
67373;BME280;54257;54.496;18.412;2023-03-11T13:44:55;98049.63;;;1.56;71.25
67373;BME280;54257;54.496;18.412;2023-03-11T13:47:24;98049.77;;;1.63;70.86
67373;BME280;54257;54.496;18.412;2023-03-11T13:50:13;98054.01;;;1.65;70.24
67373;BME280;54257;54.496;18.412;2023-03-11T13:52:47;98062.66;;;1.69;69.99
67373;BME280;54257;54.496;18.412;2023-03-11T13:57:55;98067.88;;;1.61;69.10
67373;BME280;54257;54.496;18.412;2023-03-11T14:00:26;98079.02;;;1.63;68.64
67373;BME280;54257;54.496;18.412;2023-03-11T14:03:01;98080.91;;;1.57;68.48
67373;BME280;54257;54.496;18.412;2023-03-11T14:05:31;98089.95;;;1.48;67.81
67373;BME280;54257;54.496;18.412;2023-03-11T14:08:22;98089.27;;;1.39;67.59
67373;BME280;54257;54.496;18.412;2023-03-11T14:10:56;98092.23;;;1.36;68.79
67373;BME280;54257;54.496;18.412;2023-03-11T14:13:25;98097.19;;;1.39;68.95
67373;BME280;54257;54.496;18.412;2023-03-11T14:18:37;98104.96;;;1.34;66.34
67373;BME280;54257;54.496;18.412;2023-03-11T14:21:11;98118.73;;;1.26;66.87
67373;BME280;54257;54.496;18.412;2023-03-11T14:23:45;98121.60;;;1.19;66.85
67373;BME280;54257;54.496;18.412;2023-03-11T14:28:50;98130.04;;;1.06;66.41
67373;BME280;54257;54.496;18.412;2023-03-11T14:31:32;98130.92;;;1.15;66.75
67373;BME280;54257;54.496;18.412;2023-03-11T14:34:11;98135.52;;;1.31;66.91
67373;BME280;54257;54.496;18.412;2023-03-11T14:39:21;98141.26;;;1.47;68.05
67373;BME280;54257;54.496;18.412;2023-03-11T14:41:52;98133.71;;;1.63;68.43
67373;BME280;54257;54.496;18.412;2023-03-11T14:44:23;98139.20;;;1.68;67.34
67373;BME280;54257;54.496;18.412;2023-03-11T14:47:01;98141.41;;;1.69;66.79
67373;BME280;54257;54.496;18.412;2023-03-11T14:49:35;98143.52;;;1.65;66.06
67373;BME280;54257;54.496;18.412;2023-03-11T14:52:12;98146.52;;;1.64;65.64